Time;durP1;ratioP1;P1;durP2;ratioP2;P2;SDS_P1;SDS_P2;PMS_P1;PMS_P2;Temp;Humidity;BMP_temperature;BMP_pressure;BME280_temperature;BME280_humidity;BME280_pressure;Samples;Min_cycle;Max_cycle;Signal;HPM_P1;HPM_P2
2022/05/15 00:00:53;;;;;;;13.63;4.57;;;12.30;99.90;;;;;;5024895;28;20046;-82
2022/05/15 00:03:22;;;;;;;12.20;5.15;;;12.30;99.90;;;;;;5026339;28;20049;-82
2022/05/15 00:05:56;;;;;;;17.52;5.88;;;12.30;99.90;;;;;;5021259;28;20129;-82
2022/05/15 00:08:23;;;;;;;16.08;5.28;;;12.30;99.90;;;;;;5005594;28;20048;-82
2022/05/15 00:10:50;;;;;;;8.68;4.28;;;12.30;99.90;;;;;;5025415;28;20499;-82
2022/05/15 00:13:17;;;;;;;7.72;5.03;;;12.20;99.90;;;;;;5020112;28;20041;-82
2022/05/15 00:15:43;;;;;;;7.22;4.18;;;12.20;99.90;;;;;;5015666;28;20407;-82
2022/05/15 00:18:10;;;;;;;7.10;3.47;;;12.20;99.90;;;;;;5024903;28;20047;-82
2022/05/15 00:20:37;;;;;;;17.77;4.72;;;12.20;99.90;;;;;;5023855;28;20556;-82
2022/05/15 00:23:03;;;;;;;7.05;4.45;;;12.20;99.90;;;;;;5025664;28;20033;-82
2022/05/15 00:25:29;;;;;;;6.15;3.63;;;12.10;99.90;;;;;;5025869;28;20081;-82
2022/05/15 00:27:55;;;;;;;11.98;4.85;;;12.10;99.90;;;;;;5026680;28;20499;-82
2022/05/15 00:30:21;;;;;;;9.43;4.75;;;12.10;99.90;;;;;;5026063;28;20690;-82
2022/05/15 00:32:48;;;;;;;8.30;4.07;;;12.10;99.90;;;;;;5024751;28;20091;-82
2022/05/15 00:35:14;;;;;;;14.70;4.55;;;12.00;99.90;;;;;;5008919;28;20052;-82
2022/05/15 00:37:40;;;;;;;9.98;4.32;;;12.10;99.90;;;;;;5025933;28;20041;-82
2022/05/15 00:40:09;;;;;;;7.00;3.90;;;12.00;99.90;;;;;;5019281;28;20045;-82
2022/05/15 00:42:35;;;;;;;11.25;3.75;;;12.00;99.90;;;;;;5024431;28;20041;-82
2022/05/15 00:45:02;;;;;;;8.45;4.53;;;12.00;99.90;;;;;;5012383;28;20133;-83
2022/05/15 00:47:28;;;;;;;10.30;4.30;;;12.00;99.90;;;;;;5005558;28;20096;-82
2022/05/15 00:49:55;;;;;;;7.00;3.78;;;12.00;99.90;;;;;;5007110;28;20108;-82
2022/05/15 00:52:26;;;;;;;10.13;4.40;;;12.00;99.90;;;;;;5019601;28;20045;-82
2022/05/15 00:54:59;;;;;;;18.90;3.92;;;12.00;99.90;;;;;;5009683;28;20516;-82
2022/05/15 00:57:31;;;;;;;7.13;4.43;;;12.00;99.90;;;;;;5039887;28;20041;-82
2022/05/15 01:00:03;;;;;;;14.48;4.63;;;11.90;99.90;;;;;;5013987;28;20046;-82
2022/05/15 01:02:34;;;;;;;6.57;3.60;;;11.90;99.90;;;;;;5018340;28;20054;-82
2022/05/15 01:05:00;;;;;;;6.30;4.30;;;11.90;99.90;;;;;;5004147;28;20064;-82
2022/05/15 01:07:26;;;;;;;8.35;3.67;;;11.80;99.90;;;;;;5006428;28;20038;-82
2022/05/15 01:09:52;;;;;;;8.20;5.28;;;11.80;99.90;;;;;;5020708;28;20042;-81
2022/05/15 01:12:18;;;;;;;13.93;4.18;;;11.70;99.90;;;;;;5025008;28;20528;-82
2022/05/15 01:14:45;;;;;;;10.82;4.65;;;11.80;99.90;;;;;;5025292;28;20038;-82
2022/05/15 01:17:12;;;;;;;12.27;4.03;;;11.80;99.90;;;;;;5023775;28;20041;-82
2022/05/15 01:19:40;;;;;;;5.80;3.63;;;11.80;99.90;;;;;;5022505;28;20131;-82
2022/05/15 01:22:08;;;;;;;3.60;3.30;;;11.70;99.90;;;;;;5023931;28;20046;-82
2022/05/15 01:24:35;;;;;;;4.32;3.92;;;11.70;99.90;;;;;;5024006;28;20114;-82
2022/05/15 01:27:07;;;;;;;10.50;4.32;;;11.70;99.90;;;;;;5025277;28;20049;-80
2022/05/15 01:29:42;;;;;;;5.57;3.40;;;11.70;99.90;;;;;;5024915;28;20079;-82
2022/05/15 01:32:09;;;;;;;7.93;4.00;;;11.70;99.90;;;;;;5025087;28;20704;-83
2022/05/15 01:34:35;;;;;;;8.00;4.10;;;11.70;99.90;;;;;;5022844;28;20034;-81
2022/05/15 01:37:01;;;;;;;5.75;3.97;;;11.70;99.90;;;;;;5025147;28;20107;-79
2022/05/15 01:39:30;;;;;;;8.68;4.47;;;11.70;99.90;;;;;;5025387;28;20129;-82
2022/05/15 01:41:57;;;;;;;7.75;3.95;;;11.70;99.90;;;;;;5025189;28;20072;-82
2022/05/15 01:44:22;;;;;;;6.30;4.85;;;11.60;99.90;;;;;;5024129;28;20041;-82
2022/05/15 01:46:48;;;;;;;9.23;4.18;;;11.70;99.90;;;;;;5024795;28;20099;-82
2022/05/15 01:49:15;;;;;;;6.88;3.47;;;11.60;99.90;;;;;;5023260;28;20063;-82
2022/05/15 01:51:42;;;;;;;11.50;4.55;;;11.60;99.90;;;;;;5024269;28;20180;-81
2022/05/15 01:54:08;;;;;;;10.02;4.72;;;11.60;99.90;;;;;;5024698;28;20412;-83
2022/05/15 01:56:34;;;;;;;4.50;3.80;;;11.60;99.90;;;;;;5024355;28;20133;-82
2022/05/15 01:59:00;;;;;;;12.43;4.72;;;11.50;99.90;;;;;;5024078;28;20124;-82
2022/05/15 02:01:25;;;;;;;12.75;4.40;;;11.50;99.90;;;;;;5024403;28;20042;-82
2022/05/15 02:03:51;;;;;;;9.55;4.22;;;11.50;99.90;;;;;;5038606;28;20412;-82
2022/05/15 02:06:17;;;;;;;8.77;3.63;;;11.50;99.90;;;;;;5024224;28;20466;-82
2022/05/15 02:08:43;;;;;;;10.80;5.60;;;11.50;99.90;;;;;;5023383;28;20558;-82
2022/05/15 02:11:09;;;;;;;14.57;6.53;;;11.50;99.90;;;;;;5022904;28;20042;-82
2022/05/15 02:13:35;;;;;;;5.85;4.85;;;11.50;99.90;;;;;;5024199;28;20029;-83
2022/05/15 02:16:01;;;;;;;8.48;5.03;;;11.40;99.90;;;;;;5039061;28;20549;-82
2022/05/15 02:18:27;;;;;;;13.10;4.60;;;11.40;99.90;;;;;;5024459;28;20049;-82
2022/05/15 02:20:53;;;;;;;8.55;4.55;;;11.40;99.90;;;;;;5023305;28;20444;-82
2022/05/15 02:23:19;;;;;;;9.10;4.30;;;11.40;99.90;;;;;;5023165;28;20419;-82
2022/05/15 02:25:44;;;;;;;13.73;4.85;;;11.30;99.90;;;;;;5023921;28;20075;-82
2022/05/15 02:28:10;;;;;;;15.15;4.72;;;11.30;99.90;;;;;;5023916;28;20041;-82
2022/05/15 02:30:36;;;;;;;5.85;3.53;;;11.30;99.90;;;;;;5024203;28;20044;-82
2022/05/15 02:33:02;;;;;;;6.97;5.50;;;11.20;99.90;;;;;;5023376;28;20041;-82
2022/05/15 02:35:27;;;;;;;7.18;4.53;;;11.20;99.90;;;;;;5021915;28;20128;-82
2022/05/15 02:37:53;;;;;;;15.98;5.40;;;11.20;99.90;;;;;;5024168;28;20099;-82
2022/05/15 02:40:22;;;;;;;8.23;4.95;;;11.20;99.90;;;;;;5023147;28;20048;-82
2022/05/15 02:42:48;;;;;;;8.98;4.50;;;11.20;99.90;;;;;;5022289;28;20578;-82
2022/05/15 02:45:14;;;;;;;13.38;4.38;;;11.10;99.90;;;;;;5003918;28;20046;-82
2022/05/15 02:47:41;;;;;;;7.97;5.00;;;11.20;99.90;;;;;;5020149;28;20045;-82
2022/05/15 02:52:53;;;;;;;8.13;4.95;;;11.10;99.90;;;;;;5023323;28;20089;-82
2022/05/15 02:55:20;;;;;;;8.23;4.22;;;11.10;99.90;;;;;;5023867;28;20053;-82
2022/05/15 02:57:46;;;;;;;8.98;4.28;;;11.10;99.90;;;;;;5023787;28;20041;-82
2022/05/15 03:00:13;;;;;;;15.02;4.60;;;11.10;99.90;;;;;;5021720;28;20041;-82
2022/05/15 03:02:40;;;;;;;10.55;4.78;;;11.00;99.90;;;;;;5023184;28;20522;-82
2022/05/15 03:05:07;;;;;;;7.47;4.72;;;11.00;99.90;;;;;;5022295;28;20083;-82
2022/05/15 03:07:34;;;;;;;3.75;3.38;;;11.00;99.90;;;;;;5023219;28;20033;-82
2022/05/15 03:10:00;;;;;;;8.93;3.97;;;11.00;99.90;;;;;;5023879;28;20045;-82
2022/05/15 03:12:26;;;;;;;11.90;4.63;;;10.90;99.90;;;;;;5024095;28;20049;-82
2022/05/15 03:14:51;;;;;;;8.48;4.32;;;10.90;99.90;;;;;;5023630;28;20045;-82
2022/05/15 03:17:17;;;;;;;6.55;3.15;;;10.90;99.90;;;;;;5022660;28;20060;-82
2022/05/15 03:19:43;;;;;;;11.18;4.90;;;10.90;99.90;;;;;;5021012;28;20041;-82
2022/05/15 03:22:09;;;;;;;4.47;3.85;;;10.80;99.90;;;;;;5022735;28;20088;-82
2022/05/15 03:24:35;;;;;;;4.80;4.30;;;10.90;99.90;;;;;;5023187;28;20511;-82
2022/05/15 03:27:01;;;;;;;8.25;4.85;;;10.80;99.90;;;;;;5018643;28;20124;-81
2022/05/15 03:29:27;;;;;;;13.20;4.35;;;10.80;99.90;;;;;;5007484;28;20116;-82
2022/05/15 03:31:53;;;;;;;8.27;4.60;;;10.80;99.90;;;;;;5023656;28;20046;-82
2022/05/15 03:34:19;;;;;;;7.88;3.85;;;10.80;99.90;;;;;;5022068;28;20124;-82
2022/05/15 03:36:47;;;;;;;8.43;4.93;;;10.80;99.90;;;;;;5026683;28;20128;-82
2022/05/15 03:39:14;;;;;;;19.58;5.55;;;10.80;99.90;;;;;;5012402;28;20048;-81
2022/05/15 03:41:41;;;;;;;6.47;4.00;;;10.80;99.90;;;;;;5027377;28;20052;-83
2022/05/15 03:44:07;;;;;;;10.35;4.75;;;10.80;99.90;;;;;;5027143;28;20045;-82
2022/05/15 03:46:33;;;;;;;11.32;5.03;;;10.80;99.90;;;;;;5027214;28;20077;-82
2022/05/15 03:48:59;;;;;;;13.55;4.57;;;10.80;99.90;;;;;;5025168;28;20069;-82
2022/05/15 03:51:24;;;;;;;10.68;5.60;;;10.80;99.90;;;;;;5025422;28;20275;-82
2022/05/15 03:53:50;;;;;;;8.52;4.40;;;10.80;99.90;;;;;;5025254;28;20708;-82
2022/05/15 03:56:16;;;;;;;7.60;2.97;;;10.70;99.90;;;;;;5026872;28;20037;-81
2022/05/15 03:58:42;;;;;;;9.60;3.55;;;10.70;99.90;;;;;;5026797;28;20038;-82
2022/05/15 04:01:08;;;;;;;13.50;4.32;;;10.70;99.90;;;;;;5025050;28;20130;-82
2022/05/15 04:03:33;;;;;;;14.45;5.20;;;10.70;99.90;;;;;;5025590;28;20064;-82
2022/05/15 04:05:59;;;;;;;9.85;4.95;;;10.70;99.90;;;;;;5025400;28;20053;-82
2022/05/15 04:08:27;;;;;;;11.35;4.28;;;10.70;99.90;;;;;;5026538;28;20037;-82
2022/05/15 04:10:53;;;;;;;15.82;5.63;;;10.70;99.90;;;;;;5026475;28;20446;-82
2022/05/15 04:13:19;;;;;;;7.97;3.67;;;10.70;99.90;;;;;;5026028;28;20037;-82
2022/05/15 04:15:45;;;;;;;5.88;3.83;;;10.60;99.90;;;;;;5022081;28;20116;-81
2022/05/15 04:18:11;;;;;;;9.05;5.03;;;10.60;99.90;;;;;;5006439;28;20488;-81
2022/05/15 04:20:37;;;;;;;22.77;5.05;;;10.60;99.90;;;;;;5017900;28;20521;-81
2022/05/15 04:23:03;;;;;;;3.60;2.65;;;10.60;99.90;;;;;;5026170;28;20469;-81
2022/05/15 04:25:28;;;;;;;9.13;4.70;;;10.60;99.90;;;;;;5021811;28;20067;-81
2022/05/15 04:27:54;;;;;;;10.85;4.75;;;10.60;99.90;;;;;;5024851;28;20037;-81
2022/05/15 04:30:23;;;;;;;9.35;5.00;;;10.60;99.90;;;;;;5025917;28;20056;-82
2022/05/15 04:32:51;;;;;;;6.30;3.90;;;10.70;99.90;;;;;;5024260;28;20044;-81
2022/05/15 04:35:17;;;;;;;18.25;6.20;;;10.60;99.90;;;;;;5015832;28;20127;-82
2022/05/15 04:37:43;;;;;;;4.78;3.88;;;10.60;99.90;;;;;;5001612;28;20575;-82
2022/05/15 04:40:11;;;;;;;8.55;4.85;;;10.60;99.90;;;;;;5021109;28;20117;-82
2022/05/15 04:42:37;;;;;;;4.97;3.67;;;10.70;99.90;;;;;;5005305;28;20050;-82
2022/05/15 04:45:03;;;;;;;10.52;5.18;;;10.70;99.90;;;;;;5012709;28;20090;-82
2022/05/15 04:47:28;;;;;;;14.20;4.20;;;10.70;99.90;;;;;;5025742;28;20092;-82
2022/05/15 04:49:55;;;;;;;9.05;4.55;;;10.70;99.90;;;;;;5005710;28;20103;-82
2022/05/15 04:52:21;;;;;;;8.43;4.15;;;10.70;99.90;;;;;;5025809;28;20056;-82
2022/05/15 04:54:49;;;;;;;6.28;4.00;;;10.80;99.90;;;;;;5024298;28;20128;-82
2022/05/15 04:57:15;;;;;;;9.43;4.22;;;10.80;99.90;;;;;;5025404;28;20073;-82
2022/05/15 04:59:40;;;;;;;8.35;3.97;;;10.80;99.90;;;;;;5025358;28;20080;-83
2022/05/15 05:02:06;;;;;;;15.07;5.75;;;10.80;99.90;;;;;;5024003;28;20076;-82
2022/05/15 05:04:31;;;;;;;4.55;3.50;;;10.80;99.90;;;;;;5024405;28;20057;-82
2022/05/15 05:06:57;;;;;;;13.73;4.95;;;10.90;99.90;;;;;;5008199;28;20053;-82
2022/05/15 05:09:25;;;;;;;5.18;4.70;;;10.90;99.90;;;;;;5025146;28;20048;-83
2022/05/15 05:11:50;;;;;;;4.10;3.70;;;10.90;99.90;;;;;;5025752;28;20356;-82
2022/05/15 05:14:16;;;;;;;12.60;4.93;;;10.90;99.90;;;;;;5016787;28;20045;-82
2022/05/15 05:16:41;;;;;;;8.07;4.53;;;11.00;99.90;;;;;;5005722;28;20053;-82
2022/05/15 05:19:07;;;;;;;12.43;4.15;;;11.00;99.90;;;;;;5014804;28;20463;-83
2022/05/15 05:21:33;;;;;;;7.68;4.50;;;11.00;99.90;;;;;;5007271;28;20507;-82
2022/05/15 05:24:05;;;;;;;14.75;4.70;;;11.00;99.90;;;;;;5024430;28;20041;-82
2022/05/15 05:26:31;;;;;;;11.40;5.95;;;11.10;99.90;;;;;;5025437;28;20091;-82
2022/05/15 05:28:56;;;;;;;13.10;4.22;;;11.10;99.90;;;;;;5024040;28;20054;-82
2022/05/15 05:31:22;;;;;;;8.05;3.83;;;11.10;99.90;;;;;;5023232;28;20045;-82
2022/05/15 05:33:48;;;;;;;10.18;4.28;;;11.20;99.90;;;;;;5004677;28;20107;-82
2022/05/15 05:36:14;;;;;;;14.75;4.60;;;11.20;99.90;;;;;;5019617;28;20091;-82
2022/05/15 05:38:39;;;;;;;8.00;4.85;;;11.20;99.90;;;;;;5005327;28;20069;-83
2022/05/15 05:41:05;;;;;;;3.60;3.05;;;11.30;99.90;;;;;;5011714;28;20092;-83
2022/05/15 05:43:32;;;;;;;12.68;5.00;;;11.30;99.90;;;;;;5014644;28;20077;-82
2022/05/15 05:45:58;;;;;;;9.95;4.15;;;11.30;99.90;;;;;;5007583;28;20038;-82
2022/05/15 05:48:24;;;;;;;8.70;3.90;;;11.40;99.90;;;;;;5023605;28;20050;-82
2022/05/15 05:50:49;;;;;;;6.22;4.55;;;11.40;99.90;;;;;;5024460;28;20049;-82
2022/05/15 05:53:15;;;;;;;10.68;5.00;;;11.40;99.90;;;;;;5022454;28;20540;-83
2022/05/15 05:55:41;;;;;;;7.30;4.70;;;11.50;99.90;;;;;;5024356;28;20048;-83
2022/05/15 05:58:06;;;;;;;9.13;4.40;;;11.50;99.90;;;;;;5021958;28;20049;-83
2022/05/15 06:00:37;;;;;;;6.03;3.60;;;11.50;99.90;;;;;;5023819;28;20072;-83
2022/05/15 06:05:49;;;;;;;14.10;4.75;;;11.60;99.90;;;;;;5024454;28;20423;-83
2022/05/15 06:08:15;;;;;;;13.15;4.82;;;11.70;99.90;;;;;;5005001;28;20046;-85
2022/05/15 06:10:41;;;;;;;11.68;3.95;;;11.70;99.90;;;;;;5023988;28;20045;-85
2022/05/15 06:13:10;;;;;;;7.10;3.50;;;11.80;99.90;;;;;;5022060;28;20191;-86
2022/05/15 06:15:37;;;;;;;12.15;5.00;;;11.80;99.90;;;;;;5023712;28;20508;-86
2022/05/15 06:18:04;;;;;;;17.80;6.65;;;11.90;99.90;;;;;;5021720;28;20048;-85
2022/05/15 06:20:30;;;;;;;25.90;5.88;;;11.90;99.90;;;;;;5023698;28;20076;-86
2022/05/15 06:22:56;;;;;;;6.43;4.38;;;12.00;99.90;;;;;;5006753;28;20080;-85
2022/05/15 06:25:22;;;;;;;9.13;4.60;;;12.00;99.90;;;;;;5022317;28;20045;-84
2022/05/15 06:27:48;;;;;;;12.65;4.03;;;12.00;99.90;;;;;;5024011;28;20103;-89
2022/05/15 06:30:14;;;;;;;8.38;4.50;;;12.10;99.90;;;;;;5022159;28;20839;-86
2022/05/15 06:32:40;;;;;;;23.92;5.60;;;12.10;99.90;;;;;;5011156;28;20052;-85
2022/05/15 06:35:07;;;;;;;11.75;6.00;;;12.10;99.90;;;;;;5017344;28;20045;-82
2022/05/15 06:37:32;;;;;;;5.75;3.30;;;12.10;99.90;;;;;;5021056;28;20053;-86
2022/05/15 06:39:58;;;;;;;5.72;3.88;;;12.20;99.90;;;;;;5022904;28;20083;-83
2022/05/15 06:42:28;;;;;;;27.52;4.97;;;12.20;99.90;;;;;;5019772;28;20034;-80
2022/05/15 06:44:54;;;;;;;10.77;4.93;;;12.30;99.90;;;;;;5020168;28;20057;-76
2022/05/15 06:47:20;;;;;;;7.40;4.95;;;12.30;99.90;;;;;;5022883;28;20116;-78
2022/05/15 06:49:45;;;;;;;21.60;4.10;;;12.40;99.90;;;;;;5022974;28;20167;-76
2022/05/15 06:52:11;;;;;;;15.00;4.20;;;12.40;99.90;;;;;;5023430;28;20038;-76
2022/05/15 06:54:37;;;;;;;8.00;3.88;;;12.50;99.90;;;;;;5021615;28;20049;-77
2022/05/15 06:59:46;;;;;;;8.18;3.78;;;12.50;99.90;;;;;;5013580;28;20049;-75
2022/05/15 07:02:12;;;;;;;11.00;4.07;;;12.60;99.90;;;;;;5021608;28;20629;-77
2022/05/15 07:04:40;;;;;;;18.52;4.30;;;12.60;99.90;;;;;;5004804;28;20049;-78
2022/05/15 07:07:06;;;;;;;11.25;4.32;;;12.70;99.90;;;;;;5037647;28;20576;-77
2022/05/15 07:09:31;;;;;;;7.43;3.33;;;12.70;99.90;;;;;;5020886;28;20041;-77
2022/05/15 07:11:58;;;;;;;9.25;3.42;;;12.80;99.90;;;;;;5022022;28;20038;-76
2022/05/15 07:14:23;;;;;;;9.60;3.42;;;12.80;99.90;;;;;;5018787;28;20500;-76
2022/05/15 07:16:49;;;;;;;8.88;3.30;;;12.80;99.90;;;;;;5020028;28;20040;-76
2022/05/15 07:19:14;;;;;;;14.43;4.38;;;12.90;99.90;;;;;;5001999;28;20088;-77
2022/05/15 07:21:41;;;;;;;13.60;3.65;;;12.90;99.90;;;;;;5020373;28;20556;-78
2022/05/15 07:24:07;;;;;;;6.25;3.47;;;13.00;99.90;;;;;;5021121;28;20510;-78
2022/05/15 07:26:33;;;;;;;8.00;2.83;;;13.10;99.90;;;;;;5020441;28;20045;-77
2022/05/15 07:28:59;;;;;;;9.25;4.03;;;13.10;99.90;;;;;;5022319;28;20072;-78
2022/05/15 07:31:25;;;;;;;15.82;3.70;;;13.10;99.90;;;;;;5020022;28;20034;-77
2022/05/15 07:33:51;;;;;;;6.78;2.83;;;13.20;99.90;;;;;;5020032;28;20395;-78
2022/05/15 07:36:17;;;;;;;10.52;3.90;;;13.20;99.90;;;;;;5020349;28;20377;-79
2022/05/15 07:38:43;;;;;;;21.13;3.33;;;13.30;99.90;;;;;;5028457;28;20037;-78
2022/05/15 07:41:08;;;;;;;12.20;3.03;;;13.30;99.90;;;;;;5028743;28;20045;-78
2022/05/15 07:43:34;;;;;;;10.48;3.33;;;13.40;99.90;;;;;;5021844;28;20099;-78
2022/05/15 07:46:00;;;;;;;6.68;3.53;;;13.40;99.90;;;;;;5028705;28;20519;-77
2022/05/15 07:48:25;;;;;;;18.95;4.05;;;13.50;99.90;;;;;;5021193;28;20492;-77
2022/05/15 07:50:52;;;;;;;13.25;4.32;;;13.50;99.90;;;;;;5035702;28;20129;-76
2022/05/15 07:53:18;;;;;;;9.63;2.60;;;13.50;99.90;;;;;;5021351;28;20172;-78
2022/05/15 07:55:44;;;;;;;9.40;3.47;;;13.60;99.90;;;;;;5022027;28;20466;-79
2022/05/15 07:58:10;;;;;;;3.88;2.67;;;13.70;99.90;;;;;;5019923;28;20033;-77
2022/05/15 08:00:35;;;;;;;10.82;3.00;;;13.70;99.90;;;;;;5003696;28;20049;-79
2022/05/15 08:03:04;;;;;;;6.15;3.00;;;13.80;99.90;;;;;;5020092;28;20515;-77
2022/05/15 08:08:14;;;;;;;13.05;2.20;;;13.90;99.90;;;;;;5020519;28;20056;-77
2022/05/15 08:10:46;;;;;;;7.22;3.17;;;13.90;99.90;;;;;;5021761;28;20037;-80
2022/05/15 08:13:22;;;;;;;9.57;3.17;;;14.00;99.90;;;;;;5011149;28;20049;-78
2022/05/15 08:15:48;;;;;;;11.48;3.30;;;14.00;99.90;;;;;;5033555;28;20042;-78
2022/05/15 08:23:58;;;;;;;4.38;2.85;;;14.10;99.90;;;;;;5021424;28;20049;-77
2022/05/15 08:26:24;;;;;;;5.82;1.95;;;14.20;99.90;;;;;;5020589;28;20037;-80
2022/05/15 08:28:50;;;;;;;10.02;2.97;;;14.20;99.90;;;;;;5023011;28;20120;-79
2022/05/15 08:31:17;;;;;;;11.93;2.97;;;14.30;99.90;;;;;;5022981;28;20125;-76
2022/05/15 08:33:43;;;;;;;12.30;2.80;;;14.30;99.90;;;;;;5023722;28;20041;-77
2022/05/15 08:36:10;;;;;;;6.47;2.85;;;14.30;99.90;;;;;;5024961;28;20052;-78
2022/05/15 08:38:37;;;;;;;8.80;3.00;;;14.40;99.90;;;;;;5024288;28;20037;-77
2022/05/15 08:41:40;;;;;;;8.68;2.45;;;14.40;99.90;;;;;;5024532;28;20056;-78
2022/05/15 08:44:14;;;;;;;19.45;3.97;;;14.40;99.90;;;;;;5022324;28;20487;-79
2022/05/15 08:46:50;;;;;;;12.38;2.47;;;14.50;99.90;;;;;;5022030;28;20045;-78
2022/05/15 08:49:38;;;;;;;8.63;2.97;;;14.60;99.90;;;;;;5021563;28;20411;-78
2022/05/15 08:52:26;;;;;;;2.35;2.20;;;14.60;99.90;;;;;;5020777;28;20068;-79
2022/05/15 08:54:56;;;;;;;4.10;1.98;;;14.70;99.90;;;;;;5021115;28;20080;-78
2022/05/15 08:57:50;;;;;;;6.70;2.50;;;14.70;99.90;;;;;;5022891;28;20476;-78
2022/05/15 09:00:21;;;;;;;8.40;2.30;;;14.70;99.90;;;;;;5023806;28;20382;-80
2022/05/15 09:02:47;;;;;;;6.35;2.00;;;14.80;99.90;;;;;;5023532;28;20419;-78
2022/05/15 09:05:14;;;;;;;2.13;2.00;;;14.80;99.90;;;;;;5007250;28;20515;-80
2022/05/15 09:07:52;;;;;;;5.45;2.10;;;14.90;99.90;;;;;;5020122;28;20128;-78
2022/05/15 09:10:38;;;;;;;11.68;2.85;;;14.90;99.90;;;;;;5018204;28;20091;-78
2022/05/15 09:13:16;;;;;;;15.20;2.67;;;14.90;99.90;;;;;;5011927;28;20050;-78
2022/05/15 09:15:57;;;;;;;6.50;2.80;;;15.00;99.90;;;;;;5014893;28;20049;-77
2022/05/15 09:18:23;;;;;;;4.72;2.10;;;15.00;99.90;;;;;;5014257;28;20041;-78
2022/05/15 09:21:03;;;;;;;13.60;2.47;;;15.00;99.90;;;;;;5010266;28;20042;-78
2022/05/15 09:23:32;;;;;;;13.10;2.50;;;15.10;99.90;;;;;;5017242;28;20064;-77
2022/05/15 09:26:00;;;;;;;4.72;2.40;;;15.10;99.90;;;;;;5023382;28;20072;-78
2022/05/15 09:28:28;;;;;;;5.50;2.33;;;15.20;99.90;;;;;;5022126;28;20085;-78
2022/05/15 09:31:03;;;;;;;2.92;1.85;;;15.20;99.90;;;;;;5019603;28;20049;-77
2022/05/15 09:33:51;;;;;;;6.35;1.95;;;15.30;99.90;;;;;;5022508;28;20042;-77
2022/05/15 09:36:28;;;;;;;9.95;2.83;;;15.30;99.90;;;;;;5018396;28;20067;-78
2022/05/15 09:39:25;;;;;;;12.93;2.28;;;15.30;99.90;;;;;;5020644;28;20041;-78
2022/05/15 09:45:07;;;;;;;7.78;2.63;;;15.40;99.90;;;;;;5016338;28;20115;-79
2022/05/15 09:47:40;;;;;;;9.73;1.92;;;15.40;99.90;;;;;;5018182;28;20072;-79
2022/05/15 09:50:29;;;;;;;11.90;2.80;;;15.40;99.90;;;;;;5022347;28;20110;-77
2022/05/15 09:52:57;;;;;;;5.22;2.63;;;15.50;99.90;;;;;;5022177;28;20041;-78
2022/05/15 09:55:29;;;;;;;5.47;2.53;;;15.50;99.90;;;;;;5022701;28;20073;-79
2022/05/15 09:58:00;;;;;;;4.72;1.85;;;15.50;99.90;;;;;;5018952;28;20045;-78
2022/05/15 10:00:29;;;;;;;6.87;3.20;;;15.60;99.90;;;;;;5022997;28;20050;-78
2022/05/15 10:03:03;;;;;;;11.75;2.42;;;15.60;99.90;;;;;;5023681;28;20079;-78
2022/05/15 10:05:32;;;;;;;10.10;2.10;;;15.60;99.90;;;;;;5018535;28;20046;-78
2022/05/15 10:08:10;;;;;;;5.82;2.22;;;15.70;99.90;;;;;;5022818;28;20106;-79
2022/05/15 10:10:45;;;;;;;12.35;3.30;;;15.70;99.90;;;;;;5021834;28;20081;-78
2022/05/15 10:13:33;;;;;;;4.53;2.25;;;15.80;99.90;;;;;;5022724;28;20128;-79
2022/05/15 10:16:10;;;;;;;8.23;2.85;;;15.90;99.90;;;;;;5022853;28;20041;-77
2022/05/15 10:19:08;;;;;;;2.85;1.92;;;15.90;99.90;;;;;;5023819;28;20121;-76
2022/05/15 10:21:40;;;;;;;9.52;2.15;;;16.00;99.90;;;;;;5020604;28;20049;-77
2022/05/15 10:24:13;;;;;;;3.08;2.47;;;16.00;99.90;;;;;;5021986;28;20045;-76
2022/05/15 10:26:48;;;;;;;9.70;3.25;;;16.00;99.90;;;;;;5021379;28;20040;-78
2022/05/15 10:29:36;;;;;;;4.18;2.63;;;16.00;99.90;;;;;;5023004;28;20029;-77
2022/05/15 10:32:25;;;;;;;8.90;2.15;;;16.00;99.90;;;;;;5020579;28;20067;-78
2022/05/15 10:34:52;;;;;;;7.40;1.77;;;16.00;99.90;;;;;;5019929;28;20080;-76
2022/05/15 10:37:32;;;;;;;3.75;2.15;;;16.00;99.90;;;;;;5015816;28;20033;-78
2022/05/15 10:40:10;;;;;;;10.52;3.05;;;16.10;99.90;;;;;;5023874;28;20562;-78
2022/05/15 10:42:59;;;;;;;5.70;2.20;;;16.20;99.90;;;;;;5019980;28;20041;-79
2022/05/15 10:45:45;;;;;;;6.95;2.13;;;16.20;99.90;;;;;;5019782;28;20132;-77
2022/05/15 10:48:33;;;;;;;6.40;3.08;;;16.30;99.90;;;;;;5016661;28;20431;-77
2022/05/15 10:51:08;;;;;;;9.43;1.80;;;16.30;99.90;;;;;;5018548;28;20049;-77
2022/05/15 10:57:29;;;;;;;7.25;2.65;;;16.40;99.90;;;;;;5022466;28;20042;-76
2022/05/15 11:00:19;;;;;;;14.40;2.88;;;16.50;99.90;;;;;;5020233;28;20049;-76
2022/05/15 11:03:08;;;;;;;3.35;2.17;;;16.50;99.90;;;;;;5036335;28;20057;-76
2022/05/15 11:05:44;;;;;;;10.90;2.83;;;16.60;99.90;;;;;;5019905;28;20076;-77
2022/05/15 11:08:29;;;;;;;4.25;1.80;;;16.60;99.90;;;;;;5021732;28;20067;-78
2022/05/15 11:11:08;;;;;;;12.32;2.63;;;16.70;99.90;;;;;;5018535;28;20404;-79
2022/05/15 11:13:56;;;;;;;5.40;1.98;;;16.70;99.90;;;;;;5022357;28;20041;-78
2022/05/15 11:16:54;;;;;;;7.53;2.55;;;16.80;99.90;;;;;;5004425;28;20041;-77
2022/05/15 11:19:38;;;;;;;15.55;2.33;;;16.80;99.90;;;;;;4997629;28;20049;-78
2022/05/15 11:22:25;;;;;;;12.05;2.00;;;16.90;99.90;;;;;;5020692;28;20045;-78
2022/05/15 11:25:09;;;;;;;2.35;2.17;;;16.90;99.90;;;;;;5019411;28;20570;-78
2022/05/15 11:27:57;;;;;;;4.85;3.03;;;17.00;99.90;;;;;;5020036;28;20088;-76
2022/05/15 11:30:30;;;;;;;2.65;1.60;;;17.00;99.90;;;;;;5021978;28;20128;-76
2022/05/15 11:32:55;;;;;;;2.80;2.55;;;17.00;99.90;;;;;;5021966;28;20041;-76
2022/05/15 11:35:21;;;;;;;3.47;1.92;;;17.00;99.90;;;;;;5022618;28;20038;-77
2022/05/15 11:37:56;;;;;;;5.25;2.22;;;17.00;99.90;;;;;;5022971;28;20503;-77
2022/05/15 11:40:35;;;;;;;5.43;1.85;;;17.10;99.90;;;;;;5021191;28;20048;-79
2022/05/15 11:43:33;;;;;;;13.52;3.25;;;17.20;99.90;;;;;;5020621;28;20460;-77
2022/05/15 11:46:10;;;;;;;10.02;1.58;;;17.20;99.90;;;;;;5023587;28;20103;-77
2022/05/15 11:48:38;;;;;;;6.28;3.00;;;17.30;99.90;;;;;;5021922;28;20033;-78
2022/05/15 11:51:13;;;;;;;7.68;2.92;;;17.30;99.90;;;;;;5021641;28;20068;-77
2022/05/15 11:53:53;;;;;;;7.43;2.17;;;17.40;99.90;;;;;;5020037;28;20404;-77
2022/05/15 11:56:56;;;;;;;5.80;1.90;;;17.40;99.90;;;;;;5021860;28;20041;-77
2022/05/15 11:59:27;;;;;;;4.45;2.20;;;17.50;99.90;;;;;;5024108;28;20303;-77
2022/05/15 12:01:54;;;;;;;7.85;2.38;;;17.50;99.90;;;;;;5026880;28;20093;-78
2022/05/15 12:04:58;;;;;;;4.30;1.80;;;17.60;99.90;;;;;;5033742;28;20038;-78
2022/05/15 12:07:50;;;;;;;5.35;1.88;;;17.60;99.90;;;;;;5014755;28;20058;-77
2022/05/15 12:10:33;;;;;;;8.20;2.22;;;17.60;99.90;;;;;;5018918;28;20514;-77
2022/05/15 12:13:28;;;;;;;10.50;2.05;;;17.70;99.90;;;;;;5024592;28;20037;-77
2022/05/15 12:16:15;;;;;;;3.17;2.13;;;17.70;99.90;;;;;;5000817;28;20049;-77
2022/05/15 12:18:40;;;;;;;3.35;2.05;;;17.70;99.90;;;;;;5024573;28;20056;-77
2022/05/15 12:21:08;;;;;;;3.70;2.28;;;17.80;99.90;;;;;;5026752;28;20041;-77
2022/05/15 12:24:26;;;;;;;10.27;1.98;;;17.80;99.90;;;;;;5026231;28;20034;-78
2022/05/15 12:26:48;;;;;;;10.82;1.80;;;17.80;99.90;;;;;;5024105;28;20055;-78
2022/05/15 12:29:14;;;;;;;3.20;1.90;;;17.80;99.90;;;;;;5018905;28;20045;-77
2022/05/15 12:31:44;;;;;;;6.70;1.80;;;17.80;99.90;;;;;;5021254;28;20049;-77
2022/05/15 12:34:32;;;;;;;6.07;1.92;;;17.90;99.90;;;;;;5021371;28;20255;-77
2022/05/15 12:37:06;;;;;;;9.52;1.85;;;17.90;99.90;;;;;;5022546;28;20103;-77
2022/05/15 12:39:36;;;;;;;11.32;2.60;;;17.90;99.90;;;;;;5018285;28;20038;-77
2022/05/15 12:42:23;;;;;;;3.20;1.58;;;17.90;99.90;;;;;;5022137;28;20530;-78
2022/05/15 12:45:07;;;;;;;2.53;1.65;;;17.90;99.90;;;;;;5025586;28;20120;-76
2022/05/15 12:47:33;;;;;;;5.60;2.28;;;17.90;99.90;;;;;;5018867;28;20068;-77
2022/05/15 12:50:15;;;;;;;7.85;2.10;;;18.00;99.90;;;;;;5025755;28;20038;-77
2022/05/15 12:52:40;;;;;;;5.05;1.45;;;18.10;99.90;;;;;;5024936;28;20038;-78
2022/05/15 12:55:20;;;;;;;5.30;1.88;;;18.10;99.90;;;;;;5025306;28;20045;-77
2022/05/15 12:57:48;;;;;;;13.98;2.47;;;18.10;99.90;;;;;;5025364;28;20037;-77
2022/05/15 13:00:21;;;;;;;5.47;1.40;;;18.10;99.90;;;;;;5024607;28;20079;-77
2022/05/15 13:02:47;;;;;;;3.53;1.67;;;18.10;99.90;;;;;;5023952;28;20050;-77
2022/05/15 13:05:19;;;;;;;6.20;2.03;;;18.20;99.90;;;;;;5023761;28;20334;-77
2022/05/15 13:07:44;;;;;;;2.90;1.13;;;18.30;99.90;;;;;;5024642;28;20045;-76
2022/05/15 13:10:14;;;;;;;6.40;2.05;;;18.30;99.90;;;;;;5022767;28;20176;-79
2022/05/15 13:12:56;;;;;;;5.60;2.08;;;18.30;99.90;;;;;;5022221;28;20060;-82
2022/05/15 13:15:23;;;;;;;;;;;18.30;99.90;;;;;;5024126;28;20103;-81
2022/05/15 13:17:49;;;;;;;2.95;1.85;;;18.30;99.90;;;;;;5024266;28;19920;-81
2022/05/15 13:20:17;;;;;;;3.20;1.23;;;18.30;99.90;;;;;;5024447;28;20093;-81
2022/05/15 13:22:43;;;;;;;3.22;2.15;;;18.40;99.90;;;;;;5025094;28;20037;-81